Time;durP1;ratioP1;P1;durP2;ratioP2;P2;SDS_P1;SDS_P2;PMS_P1;PMS_P2;Temp;Humidity;BMP_temperature;BMP_pressure;BME280_temperature;BME280_humidity;BME280_pressure;Samples;Min_cycle;Max_cycle;Signal;HPM_P1;HPM_P2
2023/03/10 00:00:00;;;;;;;1999.90;999.90;;;2.80;99.90;;;;;;5090875;28;20417;-66
2023/03/10 00:02:29;;;;;;;1999.90;999.90;;;2.80;99.90;;;;;;5090547;28;20773;-66
2023/03/10 00:04:56;;;;;;;1999.90;999.90;;;2.70;99.90;;;;;;5089330;28;20444;-66
2023/03/10 00:07:23;;;;;;;1999.90;999.90;;;2.70;99.90;;;;;;5090566;28;20413;-65
2023/03/10 00:09:49;;;;;;;1999.90;999.90;;;2.70;99.90;;;;;;5090783;28;20445;-65
2023/03/10 00:12:16;;;;;;;1999.90;999.90;;;2.70;99.90;;;;;;5090739;28;20421;-65
2023/03/10 00:14:43;;;;;;;1999.90;999.90;;;2.80;99.90;;;;;;5090552;28;20414;-65
2023/03/10 00:17:11;;;;;;;1999.90;999.90;;;2.80;99.90;;;;;;5089142;28;20426;-70
2023/03/10 00:19:37;;;;;;;1999.90;999.90;;;2.90;99.90;;;;;;5080552;28;20406;-69
2023/03/10 00:22:04;;;;;;;1999.90;999.90;;;2.80;99.90;;;;;;5070904;28;20965;-68
2023/03/10 00:24:31;;;;;;;1999.90;999.90;;;2.80;99.90;;;;;;5072206;28;20436;-68
2023/03/10 00:26:57;;;;;;;1999.90;999.90;;;2.70;99.90;;;;;;5075173;28;20418;-68
2023/03/10 00:29:24;;;;;;;1999.90;999.90;;;2.80;99.90;;;;;;5082608;28;20453;-68
2023/03/10 00:31:51;;;;;;;1999.90;999.90;;;2.80;99.90;;;;;;5089284;28;20415;-68
2023/03/10 00:34:19;;;;;;;1999.90;999.90;;;2.80;99.90;;;;;;5084096;28;20832;-68
2023/03/10 00:36:45;;;;;;;1999.90;999.90;;;2.90;99.90;;;;;;5072007;28;20959;-69
2023/03/10 00:39:12;;;;;;;1999.90;999.90;;;2.90;99.90;;;;;;5084243;28;20921;-68
2023/03/10 00:41:38;;;;;;;1999.90;999.90;;;2.90;99.90;;;;;;5087251;28;20430;-68
2023/03/10 00:44:08;;;;;;;1999.90;999.90;;;2.90;99.90;;;;;;5083389;28;20447;-68
2023/03/10 00:46:37;;;;;;;1999.90;999.90;;;3.00;99.90;;;;;;5089201;28;20430;-70
2023/03/10 00:49:04;;;;;;;1999.90;999.90;;;3.10;99.90;;;;;;5088697;28;20466;-68
2023/03/10 00:51:32;;;;;;;1999.90;999.90;;;3.20;99.90;;;;;;5089461;28;20483;-70
2023/03/10 00:53:59;;;;;;;1999.90;999.90;;;3.40;99.90;;;;;;5085193;28;20516;-70
2023/03/10 00:56:26;;;;;;;1999.90;999.90;;;3.60;99.90;;;;;;5078591;28;20828;-71
2023/03/10 00:58:55;;;;;;;1999.90;999.90;;;3.70;99.90;;;;;;5071651;28;20889;-70
2023/03/10 01:01:23;;;;;;;1999.90;999.90;;;3.70;99.90;;;;;;5078279;28;20406;-69
2023/03/10 01:03:51;;;;;;;1999.90;999.90;;;3.80;99.90;;;;;;5090367;28;20516;-68
2023/03/10 01:06:18;;;;;;;1999.90;999.90;;;3.80;99.90;;;;;;5082855;28;20949;-68
2023/03/10 01:08:46;;;;;;;1999.90;999.90;;;3.80;99.90;;;;;;5080317;28;20416;-71
2023/03/10 01:11:14;;;;;;;1999.90;999.90;;;3.80;99.90;;;;;;5072631;28;20427;-70
2023/03/10 01:13:41;;;;;;;1999.90;999.90;;;3.80;99.90;;;;;;5083055;28;20894;-71
2023/03/10 01:16:08;;;;;;;1999.90;999.90;;;3.90;99.90;;;;;;5087226;28;20435;-68
2023/03/10 01:18:35;;;;;;;1999.90;999.90;;;3.90;99.90;;;;;;5082948;28;20457;-68
2023/03/10 01:21:02;;;;;;;1999.90;999.90;;;4.10;99.90;;;;;;5077546;28;20428;-68
2023/03/10 01:23:29;;;;;;;1999.90;999.90;;;4.00;99.90;;;;;;5072224;28;20832;-67
2023/03/10 01:25:57;;;;;;;1999.90;999.90;;;3.90;99.90;;;;;;5087652;28;20433;-68
2023/03/10 01:28:24;;;;;;;1999.90;999.90;;;4.00;99.90;;;;;;5086399;28;20515;-70
2023/03/10 01:30:51;;;;;;;1999.90;999.90;;;4.00;99.90;;;;;;5079410;28;20801;-69
2023/03/10 01:33:18;;;;;;;1999.90;999.90;;;4.30;99.90;;;;;;5085921;28;20840;-70
2023/03/10 01:35:45;;;;;;;1999.90;999.90;;;4.30;99.90;;;;;;5089010;28;20456;-68
2023/03/10 01:38:12;;;;;;;1999.90;999.90;;;4.20;99.90;;;;;;5087288;28;20471;-66
2023/03/10 01:40:39;;;;;;;1999.90;999.90;;;4.20;99.90;;;;;;5081424;28;20895;-71
2023/03/10 01:43:27;;;;;;;1999.90;999.90;;;4.40;99.90;;;;;;5087466;28;20471;-68
2023/03/10 01:46:40;;;;;;;1999.90;999.90;;;4.30;99.90;;;;;;5085265;28;20433;-68
2023/03/10 01:49:17;;;;;;;1999.90;999.90;;;4.20;99.90;;;;;;5084847;28;20425;-69
2023/03/10 01:51:48;;;;;;;1999.90;999.90;;;4.10;99.90;;;;;;5086443;28;20834;-67
2023/03/10 01:54:20;;;;;;;1999.90;999.90;;;4.10;99.90;;;;;;5081699;28;20427;-69
2023/03/10 01:56:49;;;;;;;1999.90;999.90;;;4.30;99.90;;;;;;5082540;28;20430;-69
2023/03/10 01:59:18;;;;;;;1999.90;999.90;;;4.40;99.90;;;;;;5087778;28;20434;-69
2023/03/10 02:01:46;;;;;;;1999.90;999.90;;;4.30;99.90;;;;;;5088447;28;20479;-69
2023/03/10 02:04:17;;;;;;;1999.90;999.90;;;4.60;99.90;;;;;;5085834;28;20431;-69
2023/03/10 02:06:47;;;;;;;1999.90;999.90;;;4.60;99.90;;;;;;5084824;28;20459;-70
2023/03/10 02:09:17;;;;;;;1999.90;999.90;;;4.60;99.90;;;;;;5087243;28;20487;-68
2023/03/10 02:11:45;;;;;;;1999.90;999.90;;;4.40;99.90;;;;;;5086936;28;20509;-68
2023/03/10 02:14:12;;;;;;;1999.90;999.90;;;4.20;99.90;;;;;;5087090;28;20834;-68
2023/03/10 02:16:40;;;;;;;1999.90;999.90;;;4.40;99.90;;;;;;5083495;28;20459;-68
2023/03/10 02:19:16;;;;;;;1999.90;999.90;;;4.60;99.90;;;;;;5083097;28;20550;-67
2023/03/10 02:21:48;;;;;;;1999.90;999.90;;;4.40;99.90;;;;;;5078668;28;20434;-69
2023/03/10 02:24:25;;;;;;;1999.90;999.90;;;4.00;99.90;;;;;;5084963;28;20503;-68
2023/03/10 02:26:57;;;;;;;1999.90;999.90;;;4.10;99.90;;;;;;5079047;28;20435;-68
2023/03/10 02:29:30;;;;;;;1999.90;999.90;;;3.80;99.90;;;;;;5082421;28;20922;-68
2023/03/10 02:31:59;;;;;;;1999.90;999.90;;;4.00;99.90;;;;;;5084789;28;20425;-66
2023/03/10 02:34:27;;;;;;;1999.90;999.90;;;3.90;99.90;;;;;;5083679;28;20988;-69
2023/03/10 02:36:54;;;;;;;1999.90;999.90;;;3.80;99.90;;;;;;5079331;28;20457;-68
2023/03/10 02:39:21;;;;;;;1999.90;999.90;;;4.00;99.90;;;;;;5085721;28;20785;-69
2023/03/10 02:41:47;;;;;;;1999.90;999.90;;;4.00;99.90;;;;;;5087616;28;20421;-68
2023/03/10 02:44:18;;;;;;;1999.90;999.90;;;3.90;99.90;;;;;;5087818;28;20434;-69
2023/03/10 02:46:46;;;;;;;1999.90;999.90;;;3.80;99.90;;;;;;5086023;28;20441;-68
2023/03/10 02:49:13;;;;;;;1999.90;999.90;;;3.70;99.90;;;;;;5077891;28;20435;-69
2023/03/10 02:51:42;;;;;;;1999.90;999.90;;;3.70;99.90;;;;;;5089045;28;20479;-66
2023/03/10 02:54:10;;;;;;;1999.90;999.90;;;3.80;99.90;;;;;;5086578;28;20842;-71
2023/03/10 02:56:37;;;;;;;1999.90;999.90;;;3.60;99.90;;;;;;5093050;28;20466;-68
2023/03/10 02:59:04;;;;;;;1999.90;999.90;;;3.40;99.90;;;;;;5085214;28;20479;-68
2023/03/10 03:01:31;;;;;;;1999.90;999.90;;;3.60;99.90;;;;;;5085105;28;20465;-69
2023/03/10 03:04:00;;;;;;;1999.90;999.90;;;3.50;99.90;;;;;;5074037;28;20412;-67
2023/03/10 03:06:28;;;;;;;1999.90;999.90;;;3.60;99.90;;;;;;5073637;28;20418;-66
2023/03/10 03:08:55;;;;;;;1999.90;999.90;;;3.50;99.90;;;;;;5086175;28;20418;-68
2023/03/10 03:11:22;;;;;;;1999.90;999.90;;;3.50;99.90;;;;;;5085535;28;20436;-68
2023/03/10 03:13:49;;;;;;;1999.90;999.90;;;3.60;99.90;;;;;;5090362;28;20421;-68
2023/03/10 03:16:16;;;;;;;1999.90;999.90;;;3.60;99.90;;;;;;5084867;28;20431;-68
2023/03/10 03:18:42;;;;;;;1999.90;999.90;;;3.60;99.90;;;;;;5090031;28;20417;-68
2023/03/10 03:21:14;;;;;;;1999.90;999.90;;;3.60;99.90;;;;;;5073821;28;20415;-69
2023/03/10 03:23:41;;;;;;;1999.90;999.90;;;3.80;99.90;;;;;;5083230;28;20492;-69
2023/03/10 03:26:15;;;;;;;1999.90;999.90;;;3.70;99.90;;;;;;5088219;28;20412;-68
2023/03/10 03:28:44;;;;;;;1999.90;999.90;;;3.90;99.90;;;;;;5073209;28;20415;-68
2023/03/10 03:31:14;;;;;;;1999.90;999.90;;;4.00;99.90;;;;;;5073201;28;20455;-68
2023/03/10 03:33:41;;;;;;;1999.90;999.90;;;4.10;99.90;;;;;;5074430;28;20994;-66
2023/03/10 03:36:09;;;;;;;1999.90;999.90;;;4.00;99.90;;;;;;5083959;28;20429;-68
2023/03/10 03:38:36;;;;;;;1999.90;999.90;;;3.80;99.90;;;;;;5084214;28;20473;-68
2023/03/10 03:41:02;;;;;;;1999.90;999.90;;;3.90;99.90;;;;;;5073081;28;20412;-69
2023/03/10 03:43:29;;;;;;;1999.90;999.90;;;3.90;99.90;;;;;;5086067;28;20479;-69
2023/03/10 03:45:56;;;;;;;1999.90;999.90;;;4.00;99.90;;;;;;5083303;28;20479;-68
2023/03/10 03:48:23;;;;;;;1999.90;999.90;;;4.10;99.90;;;;;;5089915;28;20447;-65
2023/03/10 03:50:49;;;;;;;1999.90;999.90;;;4.00;99.90;;;;;;5083553;28;20436;-67
2023/03/10 03:53:17;;;;;;;1999.90;999.90;;;4.00;99.90;;;;;;5084670;28;20410;-69
2023/03/10 03:55:44;;;;;;;1999.90;999.90;;;3.80;99.90;;;;;;5082727;28;20445;-66
2023/03/10 03:58:11;;;;;;;1999.90;999.90;;;4.10;99.90;;;;;;5072836;28;20836;-68
2023/03/10 04:00:39;;;;;;;1999.90;999.90;;;4.20;99.90;;;;;;5072246;28;20450;-69
2023/03/10 04:03:05;;;;;;;1999.90;999.90;;;4.50;99.90;;;;;;5085845;28;20497;-68
2023/03/10 04:05:32;;;;;;;1999.90;999.90;;;4.40;99.90;;;;;;5084460;28;20424;-72
2023/03/10 04:07:59;;;;;;;1999.90;999.90;;;4.40;99.90;;;;;;5076121;28;20416;-70
2023/03/10 04:10:27;;;;;;;1999.90;999.90;;;4.40;99.90;;;;;;5076790;28;20411;-67
2023/03/10 04:12:54;;;;;;;1999.90;999.90;;;4.50;99.90;;;;;;5074022;28;20431;-69
2023/03/10 04:15:21;;;;;;;1999.90;999.90;;;4.60;99.90;;;;;;5081824;28;20435;-68
2023/03/10 04:17:47;;;;;;;1999.90;999.90;;;4.70;99.90;;;;;;5090289;28;20798;-68
2023/03/10 04:20:15;;;;;;;1999.90;999.90;;;4.90;99.90;;;;;;5089638;28;20433;-68
2023/03/10 04:22:42;;;;;;;1999.90;999.90;;;5.00;99.90;;;;;;5089387;28;20421;-69
2023/03/10 04:25:09;;;;;;;1999.90;999.90;;;5.30;99.90;;;;;;5088216;28;20784;-70
2023/03/10 04:27:37;;;;;;;1999.90;999.90;;;5.70;99.90;;;;;;5082502;28;20444;-70
2023/03/10 04:30:05;;;;;;;1999.90;999.90;;;6.20;99.90;;;;;;5091394;28;20489;-70
2023/03/10 04:32:32;;;;;;;1999.90;999.90;;;6.90;99.90;;;;;;5084019;28;20427;-70
2023/03/10 04:34:59;;;;;;;1999.90;999.90;;;7.50;99.90;;;;;;5077382;28;21921;-69
2023/03/10 04:37:26;;;;;;;1999.90;999.90;;;7.80;99.90;;;;;;5088548;28;20483;-70
2023/03/10 04:39:52;;;;;;;1999.90;999.90;;;8.10;99.90;;;;;;5088885;28;20461;-70
2023/03/10 04:42:19;;;;;;;1999.90;999.90;;;8.20;99.90;;;;;;5088906;28;20422;-71
2023/03/10 04:44:47;;;;;;;1999.90;999.90;;;8.50;99.90;;;;;;5090888;28;20429;-71
2023/03/10 04:47:14;;;;;;;1999.90;999.90;;;8.60;99.90;;;;;;5090018;28;20432;-70
2023/03/10 04:49:41;;;;;;;1999.90;999.90;;;8.70;99.90;;;;;;5086125;28;20418;-71
2023/03/10 04:52:08;;;;;;;1999.90;999.90;;;8.70;99.90;;;;;;5075159;28;20431;-71
2023/03/10 04:54:34;;;;;;;1999.90;999.90;;;8.70;99.90;;;;;;5088687;28;20841;-70
2023/03/10 04:57:01;;;;;;;1999.90;999.90;;;8.70;99.90;;;;;;5082576;28;20947;-70
2023/03/10 04:59:28;;;;;;;1999.90;999.90;;;8.90;99.90;;;;;;5079292;28;20467;-72
2023/03/10 05:01:56;;;;;;;1999.90;999.90;;;9.00;99.90;;;;;;5076990;28;20478;-71
2023/03/10 05:04:22;;;;;;;1999.90;999.90;;;9.20;99.90;;;;;;5084968;28;20465;-71
2023/03/10 05:06:50;;;;;;;1999.90;999.90;;;9.30;99.90;;;;;;5071427;28;20407;-71
2023/03/10 05:09:17;;;;;;;1999.90;999.90;;;9.40;99.90;;;;;;5071678;28;20423;-69
2023/03/10 05:11:44;;;;;;;1999.90;999.90;;;9.30;99.90;;;;;;5072670;28;20432;-67
2023/03/10 05:14:11;;;;;;;1999.90;999.90;;;9.20;99.90;;;;;;5085084;28;20431;-71
2023/03/10 05:16:37;;;;;;;1999.90;999.90;;;9.30;99.90;;;;;;5087017;28;20471;-70
2023/03/10 05:19:05;;;;;;;1999.90;999.90;;;9.30;99.90;;;;;;5071419;28;20486;-71
2023/03/10 05:21:33;;;;;;;1999.90;999.90;;;9.40;99.90;;;;;;5078916;28;20431;-70
2023/03/10 05:23:59;;;;;;;1999.90;999.90;;;9.40;99.90;;;;;;5090952;28;20471;-67
2023/03/10 05:26:26;;;;;;;1999.90;999.90;;;9.30;99.90;;;;;;5087378;28;20438;-69
2023/03/10 05:28:53;;;;;;;1999.90;999.90;;;9.30;99.90;;;;;;5088513;28;20487;-71
2023/03/10 05:31:24;;;;;;;1999.90;999.90;;;9.40;99.90;;;;;;5081731;28;20477;-69
2023/03/10 05:33:51;;;;;;;1999.90;999.90;;;9.40;99.90;;;;;;5081189;28;20517;-69
2023/03/10 05:36:20;;;;;;;1999.90;999.90;;;9.30;99.90;;;;;;5088513;28;20425;-71
2023/03/10 05:38:46;;;;;;;1999.90;999.90;;;9.40;99.90;;;;;;5089394;28;20911;-71
2023/03/10 05:41:14;;;;;;;1999.90;999.90;;;9.40;99.90;;;;;;5085786;28;20898;-70
2023/03/10 05:43:40;;;;;;;1999.90;999.90;;;9.50;99.90;;;;;;5073334;28;20492;-70
2023/03/10 05:46:08;;;;;;;1999.90;999.90;;;9.50;99.90;;;;;;5089677;28;20425;-68
2023/03/10 05:48:35;;;;;;;1999.90;999.90;;;9.40;99.90;;;;;;5082940;28;20480;-71
2023/03/10 05:51:03;;;;;;;1999.90;999.90;;;9.30;99.90;;;;;;5079266;28;20947;-69
2023/03/10 05:53:33;;;;;;;1999.90;999.90;;;9.30;99.90;;;;;;5070315;28;20771;-69
2023/03/10 05:56:00;;;;;;;1999.90;999.90;;;9.30;99.90;;;;;;5075124;28;20430;-68
2023/03/10 05:58:27;;;;;;;1999.90;999.90;;;9.30;99.90;;;;;;5075605;28;20439;-68
2023/03/10 06:00:54;;;;;;;1999.90;999.90;;;9.30;99.90;;;;;;5070273;28;20477;-69
2023/03/10 06:03:22;;;;;;;1999.90;999.90;;;9.40;99.90;;;;;;5069802;28;20457;-69
2023/03/10 06:05:49;;;;;;;1999.90;999.90;;;9.40;99.90;;;;;;5069906;28;20428;-68
2023/03/10 06:08:15;;;;;;;1999.90;999.90;;;9.40;99.90;;;;;;5077010;28;20518;-70
2023/03/10 06:10:43;;;;;;;1999.90;999.90;;;9.40;99.90;;;;;;5086843;28;20468;-72
2023/03/10 06:13:10;;;;;;;1999.90;999.90;;;9.50;99.90;;;;;;5070132;28;20450;-69
2023/03/10 06:15:37;;;;;;;1999.90;999.90;;;9.40;99.90;;;;;;5070074;28;20885;-69
2023/03/10 06:18:03;;;;;;;1999.90;999.90;;;9.40;99.90;;;;;;5070246;28;20469;-66
2023/03/10 06:20:30;;;;;;;1999.90;999.90;;;9.40;99.90;;;;;;5081862;28;20606;-70
2023/03/10 06:22:57;;;;;;;1999.90;999.90;;;9.50;99.90;;;;;;5087704;28;20961;-70
2023/03/10 06:25:23;;;;;;;1999.90;999.90;;;9.60;99.90;;;;;;5085506;28;20414;-69
2023/03/10 06:27:51;;;;;;;1999.90;999.90;;;9.60;99.90;;;;;;5089783;28;20421;-69
2023/03/10 06:30:19;;;;;;;1999.90;999.90;;;9.50;99.90;;;;;;5090302;28;20471;-70
2023/03/10 06:32:46;;;;;;;1999.90;999.90;;;9.40;99.90;;;;;;5085157;28;20483;-70
2023/03/10 06:35:14;;;;;;;1999.90;999.90;;;9.40;99.90;;;;;;5080550;28;20479;-70
2023/03/10 06:37:41;;;;;;;1999.90;999.90;;;9.40;99.90;;;;;;5081966;28;20411;-68
2023/03/10 06:40:12;;;;;;;1999.90;999.90;;;9.50;99.90;;;;;;5085718;28;20866;-68
2023/03/10 06:42:39;;;;;;;1999.90;999.90;;;9.50;99.90;;;;;;5087690;28;20438;-66
2023/03/10 06:45:09;;;;;;;1999.90;999.90;;;9.60;99.90;;;;;;5085734;28;20450;-70
2023/03/10 06:47:36;;;;;;;1999.90;999.90;;;9.50;99.90;;;;;;5081108;28;20845;-70
2023/03/10 06:50:04;;;;;;;1999.90;999.90;;;9.60;99.90;;;;;;5086095;28;20465;-68
2023/03/10 06:52:33;;;;;;;1999.90;999.90;;;9.50;99.90;;;;;;5078291;28;20428;-67
2023/03/10 06:54:59;;;;;;;1999.90;999.90;;;9.50;99.90;;;;;;5069667;28;20411;-67
2023/03/10 06:57:26;;;;;;;1999.90;999.90;;;9.50;99.90;;;;;;5083204;28;20483;-69
2023/03/10 06:59:53;;;;;;;1999.90;999.90;;;9.50;99.90;;;;;;5085877;28;20429;-71
2023/03/10 07:02:21;;;;;;;1999.90;999.90;;;9.40;99.90;;;;;;5085352;28;20425;-68
2023/03/10 07:04:48;;;;;;;1999.90;999.90;;;9.40;99.90;;;;;;5086551;28;20435;-69
2023/03/10 07:07:14;;;;;;;1999.90;999.90;;;9.40;99.90;;;;;;5086424;28;20425;-68
2023/03/10 07:09:41;;;;;;;1999.90;999.90;;;9.60;99.90;;;;;;5083693;28;20429;-69
2023/03/10 07:12:08;;;;;;;1999.90;999.90;;;9.60;99.90;;;;;;5085654;28;20495;-70
2023/03/10 07:14:35;;;;;;;1999.90;999.90;;;9.70;99.90;;;;;;5086591;28;20455;-70
2023/03/10 07:17:02;;;;;;;1999.90;999.90;;;9.80;99.90;;;;;;5085576;28;20479;-67
2023/03/10 07:19:30;;;;;;;1999.90;999.90;;;9.90;99.90;;;;;;5087097;28;20430;-68
2023/03/10 07:21:57;;;;;;;1999.90;999.90;;;9.90;99.90;;;;;;5086272;28;20429;-67
2023/03/10 07:24:24;;;;;;;1999.90;999.90;;;9.90;99.90;;;;;;5086066;28;20430;-68
2023/03/10 07:26:50;;;;;;;1999.90;999.90;;;9.90;99.90;;;;;;5085117;28;20487;-71
2023/03/10 07:29:17;;;;;;;1999.90;999.90;;;9.90;99.90;;;;;;5081016;28;20426;-69
2023/03/10 07:31:44;;;;;;;1999.90;999.90;;;9.90;99.90;;;;;;5086983;28;20487;-69
2023/03/10 07:34:11;;;;;;;1999.90;999.90;;;9.90;99.90;;;;;;5080558;28;20430;-70
2023/03/10 07:36:39;;;;;;;1999.90;999.90;;;9.90;99.90;;;;;;5085942;28;20486;-68
2023/03/10 07:39:05;;;;;;;1999.90;999.90;;;9.90;99.90;;;;;;5090210;28;20490;-68
2023/03/10 07:41:32;;;;;;;1999.90;999.90;;;10.00;99.90;;;;;;5090652;28;20426;-67
2023/03/10 07:43:59;;;;;;;1999.90;999.90;;;10.10;99.90;;;;;;5090598;28;20487;-69
2023/03/10 07:46:26;;;;;;;1999.90;999.90;;;10.20;99.90;;;;;;5091124;28;20425;-69
2023/03/10 07:48:52;;;;;;;1999.90;999.90;;;10.20;99.90;;;;;;5089636;28;20560;-69
2023/03/10 07:51:19;;;;;;;1999.90;999.90;;;10.30;99.90;;;;;;5091123;28;20542;-69
2023/03/10 07:53:47;;;;;;;1999.90;999.90;;;10.30;99.90;;;;;;5088948;28;20425;-70
2023/03/10 07:56:14;;;;;;;1999.90;999.90;;;10.40;99.90;;;;;;5084160;28;20426;-69
2023/03/10 07:58:41;;;;;;;1999.90;999.90;;;10.50;99.90;;;;;;5089900;28;20429;-68
2023/03/10 08:01:13;;;;;;;1999.90;999.90;;;10.50;99.90;;;;;;5089907;28;20426;-69
2023/03/10 08:03:40;;;;;;;1999.90;999.90;;;10.60;99.90;;;;;;5089488;28;20480;-69
2023/03/10 08:06:07;;;;;;;1999.90;999.90;;;10.60;99.90;;;;;;5090262;28;20433;-70
2023/03/10 08:08:34;;;;;;;1999.90;999.90;;;10.70;99.90;;;;;;5089254;28;20486;-69
2023/03/10 08:11:04;;;;;;;1999.90;999.90;;;10.80;99.90;;;;;;5089507;28;20429;-69
2023/03/10 08:13:31;;;;;;;1999.90;999.90;;;10.80;99.90;;;;;;5090276;28;20437;-69
2023/03/10 08:15:59;;;;;;;1999.90;999.90;;;10.80;99.90;;;;;;5090747;28;20512;-69
2023/03/10 08:18:26;;;;;;;1999.90;999.90;;;10.80;99.90;;;;;;5085923;28;20420;-69
2023/03/10 08:20:53;;;;;;;1999.90;999.90;;;10.80;99.90;;;;;;5088377;28;20503;-69
2023/03/10 08:23:19;;;;;;;1999.90;999.90;;;10.80;99.90;;;;;;5072599;28;20424;-68
2023/03/10 08:25:46;;;;;;;1999.90;999.90;;;10.90;99.90;;;;;;5071870;28;20415;-69
2023/03/10 08:28:14;;;;;;;1999.90;999.90;;;10.90;99.90;;;;;;5071143;28;20962;-69
2023/03/10 08:30:41;;;;;;;1999.90;999.90;;;10.90;99.90;;;;;;5072266;28;20434;-68
2023/03/10 08:33:08;;;;;;;1999.90;999.90;;;11.00;99.90;;;;;;5072100;28;20485;-66
2023/03/10 08:35:36;;;;;;;1999.90;999.90;;;11.00;99.90;;;;;;5085122;28;20422;-69
2023/03/10 08:38:03;;;;;;;1999.90;999.90;;;11.10;99.90;;;;;;5092274;28;20440;-68
2023/03/10 08:40:31;;;;;;;1999.90;999.90;;;11.10;99.90;;;;;;5092375;28;20505;-69
2023/03/10 08:42:58;;;;;;;1999.90;999.90;;;11.20;99.90;;;;;;5092081;28;20463;-68
2023/03/10 08:45:26;;;;;;;1999.90;999.90;;;11.20;99.90;;;;;;5092014;28;20467;-69
2023/03/10 08:47:53;;;;;;;1999.90;999.90;;;11.20;99.90;;;;;;5091882;28;20418;-69
2023/03/10 08:50:20;;;;;;;1999.90;999.90;;;11.30;99.90;;;;;;5092190;28;20414;-70
2023/03/10 08:52:46;;;;;;;1999.90;999.90;;;11.40;99.90;;;;;;5091884;28;20429;-69
2023/03/10 08:55:14;;;;;;;1999.90;999.90;;;11.50;99.90;;;;;;5091783;28;20414;-68
2023/03/10 08:57:41;;;;;;;1999.90;999.90;;;11.60;99.90;;;;;;5085115;28;20423;-69
2023/03/10 09:00:11;;;;;;;1999.90;999.90;;;11.60;99.90;;;;;;5083496;28;20438;-71
2023/03/10 09:02:39;;;;;;;1999.90;999.90;;;11.60;99.90;;;;;;5088826;28;20426;-69
2023/03/10 09:05:06;;;;;;;1999.90;999.90;;;11.70;99.90;;;;;;5088075;28;20448;-68
2023/03/10 09:07:33;;;;;;;1999.90;999.90;;;11.70;99.90;;;;;;5089703;28;20425;-68
2023/03/10 09:10:00;;;;;;;1999.90;999.90;;;11.80;99.90;;;;;;5088316;28;20471;-69
2023/03/10 09:12:27;;;;;;;1999.90;999.90;;;11.80;99.90;;;;;;5089584;28;20430;-72
2023/03/10 09:14:53;;;;;;;1999.90;999.90;;;11.80;99.90;;;;;;5087253;28;20434;-69
2023/03/10 09:17:20;;;;;;;1999.90;999.90;;;12.00;99.90;;;;;;5080224;28;20750;-69
2023/03/10 09:19:48;;;;;;;1999.90;999.90;;;12.00;99.90;;;;;;5071488;28;20415;-68
2023/03/10 09:22:15;;;;;;;1999.90;999.90;;;12.20;99.90;;;;;;5073656;28;20469;-67
2023/03/10 09:24:41;;;;;;;1999.90;999.90;;;12.30;99.90;;;;;;5071004;28;20469;-69
2023/03/10 09:27:08;;;;;;;1999.90;999.90;;;12.20;99.90;;;;;;5070611;28;20909;-67
2023/03/10 09:29:35;;;;;;;1999.90;999.90;;;12.20;99.90;;;;;;5071236;28;20420;-68
2023/03/10 09:32:02;;;;;;;1999.90;999.90;;;11.70;99.90;;;;;;5083223;28;21143;-68
2023/03/10 09:34:28;;;;;;;1999.90;999.90;;;11.30;99.90;;;;;;5077391;28;20416;-68
2023/03/10 09:36:57;;;;;;;1999.90;999.90;;;11.00;99.90;;;;;;5070811;28;20416;-69
2023/03/10 09:39:24;;;;;;;1999.90;999.90;;;10.60;99.90;;;;;;5072150;28;20420;-69
2023/03/10 09:42:29;;;;;;;1999.90;999.90;;;10.30;99.90;;;;;;5070892;28;20466;-69
2023/03/10 09:45:05;;;;;;;1999.90;999.90;;;10.20;99.90;;;;;;5078966;28;20422;-69
2023/03/10 09:47:44;;;;;;;1999.90;999.90;;;10.20;99.90;;;;;;5088390;28;20433;-69
2023/03/10 09:50:24;;;;;;;1999.90;999.90;;;10.20;99.90;;;;;;5087676;28;20426;-69
2023/03/10 09:52:59;;;;;;;1999.90;999.90;;;10.10;99.90;;;;;;5079514;28;20829;-69
2023/03/10 09:55:29;;;;;;;1999.90;999.90;;;10.30;99.90;;;;;;5083596;28;20410;-69
2023/03/10 09:57:56;;;;;;;1999.90;999.90;;;10.50;99.90;;;;;;5090596;28;20467;-71
2023/03/10 10:00:26;;;;;;;1999.90;999.90;;;10.40;99.90;;;;;;5090957;28;20478;-71
2023/03/10 10:03:02;;;;;;;1999.90;999.90;;;10.00;99.90;;;;;;5090863;28;20406;-69
2023/03/10 10:05:32;;;;;;;1999.90;999.90;;;9.90;99.90;;;;;;5090963;28;20414;-69
2023/03/10 10:08:03;;;;;;;1999.90;999.90;;;9.90;99.90;;;;;;5090674;28;20432;-69
2023/03/10 10:10:34;;;;;;;1999.90;999.90;;;10.00;99.90;;;;;;5090815;28;20417;-71
2023/03/10 10:13:11;;;;;;;1999.90;999.90;;;9.90;99.90;;;;;;5090836;28;20421;-71
2023/03/10 10:15:40;;;;;;;1999.90;999.90;;;10.00;99.90;;;;;;5090749;28;20823;-68
2023/03/10 10:18:13;;;;;;;1999.90;999.90;;;9.90;99.90;;;;;;5090582;28;20406;-70
2023/03/10 10:20:45;;;;;;;1999.90;999.90;;;9.90;99.90;;;;;;5090715;28;20413;-68
2023/03/10 10:23:19;;;;;;;1999.90;999.90;;;9.90;99.90;;;;;;5085704;28;20433;-69
2023/03/10 10:25:46;;;;;;;1999.90;999.90;;;9.90;99.90;;;;;;5084602;28;20463;-69
2023/03/10 10:28:21;;;;;;;1999.90;999.90;;;10.00;99.90;;;;;;5081726;28;20427;-69
2023/03/10 10:30:48;;;;;;;1999.90;999.90;;;10.20;99.90;;;;;;5086126;28;20505;-69
2023/03/10 10:33:16;;;;;;;1999.90;999.90;;;10.40;99.90;;;;;;5090281;28;20538;-71
2023/03/10 10:35:44;;;;;;;1999.90;999.90;;;10.50;99.90;;;;;;5090309;28;20493;-68
2023/03/10 10:38:25;;;;;;;1999.90;999.90;;;10.60;99.90;;;;;;5090702;28;20496;-69
2023/03/10 10:40:59;;;;;;;1999.90;999.90;;;10.70;99.90;;;;;;5082443;28;21169;-68
2023/03/10 10:43:26;;;;;;;1999.90;999.90;;;10.60;99.90;;;;;;5082437;28;20887;-71
2023/03/10 10:45:54;;;;;;;1999.90;999.90;;;10.50;99.90;;;;;;5090108;28;20779;-69
2023/03/10 10:48:36;;;;;;;1999.90;999.90;;;10.50;99.90;;;;;;5090417;28;20433;-68
2023/03/10 10:51:03;;;;;;;1999.90;999.90;;;10.60;99.90;;;;;;5090339;28;20889;-69
2023/03/10 10:53:33;;;;;;;1999.90;999.90;;;10.60;99.90;;;;;;5090111;28;20426;-69
2023/03/10 10:56:03;;;;;;;1999.90;999.90;;;10.70;99.90;;;;;;5087011;28;20430;-68
2023/03/10 10:58:32;;;;;;;1999.90;999.90;;;10.80;99.90;;;;;;5087191;28;20911;-68
2023/03/10 11:01:01;;;;;;;1999.90;999.90;;;10.90;99.90;;;;;;5085986;28;20448;-69
2023/03/10 11:03:30;;;;;;;1999.90;999.90;;;11.00;99.90;;;;;;5080737;28;20426;-69
2023/03/10 11:05:58;;;;;;;1999.90;999.90;;;10.90;99.90;;;;;;5086568;28;21165;-72
2023/03/10 11:08:36;;;;;;;1999.90;999.90;;;10.90;99.90;;;;;;5087661;28;20479;-69
2023/03/10 11:11:15;;;;;;;1999.90;999.90;;;11.10;99.90;;;;;;5082200;28;20421;-69
2023/03/10 11:13:55;;;;;;;1999.90;999.90;;;11.40;99.90;;;;;;5073901;28;20415;-68
2023/03/10 11:16:28;;;;;;;1999.90;999.90;;;10.80;99.90;;;;;;5073689;28;20415;-69
2023/03/10 11:19:00;;;;;;;1999.90;999.90;;;10.80;99.90;;;;;;5073783;28;21044;-68
2023/03/10 11:21:31;;;;;;;1999.90;999.90;;;10.90;99.90;;;;;;5073707;28;20415;-69
2023/03/10 11:24:10;;;;;;;1999.90;999.90;;;10.80;99.90;;;;;;5073801;28;20407;-69
2023/03/10 11:26:50;;;;;;;1999.90;999.90;;;10.60;99.90;;;;;;5087902;28;20429;-69
2023/03/10 11:29:27;;;;;;;1999.90;999.90;;;10.40;99.90;;;;;;5089285;28;20853;-70
2023/03/10 11:32:03;;;;;;;1999.90;999.90;;;10.40;99.90;;;;;;5086244;28;20429;-70
2023/03/10 11:34:31;;;;;;;1999.90;999.90;;;10.20;99.90;;;;;;5086842;28;20491;-70
2023/03/10 11:37:05;;;;;;;1999.90;999.90;;;10.00;99.90;;;;;;5080344;28;20916;-71
2023/03/10 11:39:43;;;;;;;1999.90;999.90;;;9.80;99.90;;;;;;5091496;28;20441;-69
2023/03/10 11:42:16;;;;;;;1999.90;999.90;;;9.70;99.90;;;;;;5091439;28;20426;-70
2023/03/10 11:44:48;;;;;;;1999.90;999.90;;;9.80;99.90;;;;;;5089891;28;20471;-70
2023/03/10 11:47:22;;;;;;;1999.90;999.90;;;9.70;99.90;;;;;;5090425;28;20434;-69
2023/03/10 11:49:56;;;;;;;1999.90;999.90;;;9.50;99.90;;;;;;5079647;28;20772;-70
2023/03/10 11:52:25;;;;;;;1999.90;999.90;;;9.30;99.90;;;;;;5083526;28;20435;-69
2023/03/10 11:55:00;;;;;;;1999.90;999.90;;;9.20;99.90;;;;;;5082047;28;20456;-69
2023/03/10 11:57:32;;;;;;;1999.90;999.90;;;9.30;99.90;;;;;;5086415;28;20448;-69
2023/03/10 12:00:03;;;;;;;1999.90;999.90;;;9.30;99.90;;;;;;5090252;28;20487;-69
2023/03/10 12:02:36;;;;;;;1999.90;999.90;;;9.30;99.90;;;;;;5085717;28;20805;-68
2023/03/10 12:05:08;;;;;;;1999.90;999.90;;;9.50;99.90;;;;;;5089231;28;20430;-71
2023/03/10 12:07:38;;;;;;;1999.90;999.90;;;9.50;99.90;;;;;;5086340;28;20432;-70
2023/03/10 12:10:15;;;;;;;1999.90;999.90;;;9.40;99.90;;;;;;5091308;28;20483;-70
2023/03/10 12:12:44;;;;;;;1999.90;999.90;;;9.30;99.90;;;;;;5088268;28;20433;-70